Royal Lake, Illinois
Current Conditions -  °F | °C
As of 2:55 PM on Thursday 18 Dec 2014 (Local Time) from KENL Reporting Station
Overcast Overcast  
Wind Chill: 29°   Ceiling: 7000
Heat Index: 33°   Visibility: 10mi
Dew Point: 25°   Wind: 5mph
Humidity: 71%   Direction: 10°N
Pressure: 30.23"   Gusts: NA
Location:  38.5905°N, 89.3709°W
Report Text: KENL 182055Z AUTO 01004KT 10SM SCT046 OVC070 01/M04 A3023 RMK AO2 T00071040
Loading
Personal Weather Stations






























Interactive Weather Map New forecast layout! Learn more

10-Day Weather Forecast

Advertisements
Track Severe Weather on mobile